Rotaer Eletrônico

Entre em contato com o Rotor Central.

terça-feira, 14 de dezembro de 2010

METAR/TAF Decodificado para SBNF Navegantes/SC

METAR text:
SBNF 141900Z 29004KT 9999 FEW040 OVC100 19/15 Q1011

Conditions at:
SBNF (NAVEGANTES , BR) observed 1900 UTC 14 December 2010

Temperature:
19.0°C (66°F)

Dewpoint:
15.0°C (59°F) [RH = 78%]

Pressure (altimeter):
29.85 inches Hg (1011.0 mb)

Winds:
from the WNW (290 degrees) at 5 MPH (4 knots; 2.1 m/s)

Visibility:
6 or more miles (10+ km)

Ceiling:
10000 feet AGL

Clouds:
few clouds at 4000 feet AGL
overcast cloud deck at 10000 feet AGL

Weather:
no significant weather observed at this time


Forecast for:
SBNF (NAVEGANTES , BR)

Text:
SBNF 141600Z 1418/1518 18008KT 9999 SCT030 TX23/1418Z TN20/1509Z RMK PDP

Forecast period:
1800 UTC 14 December 2010 to 1800 UTC 15 December 2010

Forecast type:
FROM: standard forecast or significant change

Winds:
from the S (180 degrees) at 9 MPH (8 knots; 4.2 m/s)

Visibility:
6 or more miles (10+ km)

Ceiling:
10000 feet AGL

Clouds:
scattered clouds at 3000 feet AGL
overcast cloud deck at 10000 feet AGL

Weather:
no significant weather forecast for this period


0 comentários:

Postar um comentário

Radar ADS-B localizado em Itajaí-Sc alcance raio de 320 Km

Radar ADS-B ModeSMixer2

METEOROLOGIA